Time;durP1;ratioP1;P1;durP2;ratioP2;P2;SDS_P1;SDS_P2;PMS_P1;PMS_P2;Temp;Humidity;BMP_temperature;BMP_pressure;BME280_temperature;BME280_humidity;BME280_pressure;Samples;Min_cycle;Max_cycle;Signal;HPM_P1;HPM_P2
2022/12/03 00:01:11;;;;;;;26.50;17.23;;;-5.00;99.90;;;;;;5015144;28;20190;-73
2022/12/03 00:03:37;;;;;;;28.20;17.63;;;-5.10;99.90;;;;;;5019481;28;20453;-73
2022/12/03 00:06:03;;;;;;;25.47;18.17;;;-4.90;99.90;;;;;;5014829;28;20431;-78
2022/12/03 00:08:29;;;;;;;26.27;17.53;;;-4.90;99.90;;;;;;5014769;28;20936;-78
2022/12/03 00:10:54;;;;;;;27.10;18.00;;;-5.30;99.90;;;;;;5014614;28;20632;-76
2022/12/03 00:13:20;;;;;;;22.70;16.90;;;-5.30;99.90;;;;;;5015594;28;20278;-73
2022/12/03 00:15:46;;;;;;;24.87;17.10;;;-5.00;99.90;;;;;;5027355;28;20269;-79
2022/12/03 00:18:11;;;;;;;29.87;17.67;;;-4.70;99.90;;;;;;5015032;28;20189;-78
2022/12/03 00:20:37;;;;;;;24.50;16.57;;;-5.50;99.90;;;;;;5014903;28;20221;-75
2022/12/03 00:23:03;;;;;;;30.07;19.27;;;-5.60;99.90;;;;;;5014883;28;20251;-74
2022/12/03 00:25:29;;;;;;;27.27;18.57;;;-5.30;99.90;;;;;;5014349;28;20196;-78
2022/12/03 00:27:54;;;;;;;28.20;18.73;;;-4.90;99.90;;;;;;5020785;28;20244;-77
2022/12/03 00:30:20;;;;;;;27.70;17.27;;;-4.60;99.90;;;;;;5014943;28;20196;-78
2022/12/03 00:32:46;;;;;;;27.67;17.03;;;-3.70;99.90;;;;;;5014703;28;20312;-75
2022/12/03 00:35:11;;;;;;;28.93;19.37;;;-3.70;99.90;;;;;;5014951;28;20216;-75
2022/12/03 00:37:37;;;;;;;24.53;18.17;;;-4.70;99.90;;;;;;5017386;28;20177;-74
2022/12/03 00:40:04;;;;;;;28.60;18.00;;;-4.80;99.90;;;;;;5028133;28;20212;-77
2022/12/03 00:42:30;;;;;;;23.67;16.10;;;-4.70;99.90;;;;;;5014659;28;20208;-73
2022/12/03 00:44:56;;;;;;;29.90;19.37;;;-3.80;99.90;;;;;;5017852;28;20504;-73
2022/12/03 00:47:21;;;;;;;24.60;16.33;;;-4.40;99.90;;;;;;5015326;28;20188;-74
2022/12/03 00:49:47;;;;;;;25.47;17.60;;;-4.40;99.90;;;;;;5014312;28;20226;-75
2022/12/03 00:52:13;;;;;;;25.30;16.60;;;-4.70;99.90;;;;;;5014733;28;20188;-74
2022/12/03 00:54:39;;;;;;;25.47;17.63;;;-5.00;99.90;;;;;;5014269;28;20595;-72
2022/12/03 00:57:04;;;;;;;26.30;18.10;;;-5.30;99.90;;;;;;5014318;28;20196;-73
2022/12/03 00:59:30;;;;;;;21.90;14.60;;;-4.60;99.90;;;;;;5014400;28;20189;-73
2022/12/03 01:01:56;;;;;;;29.67;18.57;;;-5.00;99.90;;;;;;5046313;28;20200;-73
2022/12/03 01:04:22;;;;;;;27.40;15.97;;;-5.10;99.90;;;;;;5014705;28;20197;-74
2022/12/03 01:06:48;;;;;;;21.97;15.57;;;-5.30;99.90;;;;;;5013987;28;20726;-72
2022/12/03 01:09:13;;;;;;;26.83;18.37;;;-5.60;99.90;;;;;;5014033;28;20520;-74
2022/12/03 01:11:40;;;;;;;21.27;15.53;;;-6.30;99.90;;;;;;5014772;28;20194;-72
2022/12/03 01:14:12;;;;;;;23.43;16.43;;;-6.00;99.90;;;;;;5014496;28;20181;-74
2022/12/03 01:16:38;;;;;;;24.47;16.43;;;-5.50;99.90;;;;;;5017057;28;20508;-75
2022/12/03 01:19:05;;;;;;;22.63;15.57;;;-5.80;99.90;;;;;;5014164;28;20877;-74
2022/12/03 01:21:31;;;;;;;28.73;17.67;;;-5.60;99.90;;;;;;5024985;28;20434;-74
2022/12/03 01:23:58;;;;;;;23.57;17.67;;;-5.90;99.90;;;;;;5018058;28;20447;-73
2022/12/03 01:26:24;;;;;;;22.77;15.43;;;-5.10;99.90;;;;;;5017762;28;20779;-74
2022/12/03 01:28:51;;;;;;;25.00;16.80;;;-6.70;99.90;;;;;;5029959;28;20545;-71
2022/12/03 01:34:01;;;;;;;24.07;15.23;;;-7.00;99.90;;;;;;5018182;28;20428;-77
2022/12/03 01:36:27;;;;;;;24.93;16.17;;;-6.40;99.90;;;;;;5017474;28;20422;-79
2022/12/03 01:38:53;;;;;;;27.53;17.13;;;-6.30;99.90;;;;;;5031526;28;20196;-75
2022/12/03 01:41:21;;;;;;;24.27;17.27;;;-6.60;99.90;;;;;;5031365;28;20434;-76
2022/12/03 01:43:48;;;;;;;24.30;16.60;;;-6.60;99.90;;;;;;5017695;28;20192;-74
2022/12/03 01:46:22;;;;;;;26.30;16.90;;;-7.10;99.90;;;;;;5018140;28;20442;-75
2022/12/03 01:48:51;;;;;;;20.50;14.67;;;-6.70;99.90;;;;;;5017458;28;20906;-75
2022/12/03 01:51:17;;;;;;;29.23;16.63;;;-6.90;99.90;;;;;;5017116;28;20423;-74
2022/12/03 01:53:43;;;;;;;22.50;16.23;;;-6.80;99.90;;;;;;5017969;28;20529;-73
2022/12/03 01:56:14;;;;;;;21.87;14.43;;;-6.60;99.90;;;;;;5017451;28;20434;-72
2022/12/03 01:58:40;;;;;;;26.67;18.20;;;-6.40;99.90;;;;;;5021348;28;20854;-73
2022/12/03 02:01:13;;;;;;;27.17;17.43;;;-6.10;99.90;;;;;;5017585;28;20433;-72
2022/12/03 02:03:39;;;;;;;21.70;15.10;;;-5.40;99.90;;;;;;5017356;28;20812;-73
2022/12/03 02:06:16;;;;;;;24.53;17.10;;;-5.40;99.90;;;;;;5029408;28;20436;-74
2022/12/03 02:08:42;;;;;;;22.63;16.30;;;-5.50;99.90;;;;;;5020060;28;20609;-72
2022/12/03 02:11:25;;;;;;;23.83;17.00;;;-5.90;99.90;;;;;;5024182;28;20430;-72
2022/12/03 02:13:55;;;;;;;22.57;15.50;;;-5.80;99.90;;;;;;5016386;28;20438;-73
2022/12/03 02:16:21;;;;;;;23.70;15.70;;;-6.20;99.90;;;;;;5017770;28;20488;-72
2022/12/03 02:18:47;;;;;;;25.53;16.80;;;-5.40;99.90;;;;;;5030676;28;20430;-74
2022/12/03 02:21:25;;;;;;;21.33;14.37;;;-6.30;99.90;;;;;;5016737;28;20200;-73
2022/12/03 02:24:03;;;;;;;18.40;13.57;;;-7.20;99.90;;;;;;5017214;28;20438;-73
2022/12/03 02:26:29;;;;;;;22.87;15.83;;;-6.60;99.90;;;;;;5017130;28;20465;-73
2022/12/03 02:28:55;;;;;;;23.57;15.83;;;-6.80;99.90;;;;;;5029308;28;20473;-74
2022/12/03 02:31:21;;;;;;;26.53;15.53;;;-7.10;99.90;;;;;;5016512;28;20185;-73
2022/12/03 02:33:48;;;;;;;20.80;13.97;;;-6.70;99.90;;;;;;5029705;28;20481;-73
2022/12/03 02:36:13;;;;;;;26.60;15.47;;;-7.50;99.90;;;;;;5016752;28;20426;-73
2022/12/03 02:38:41;;;;;;;23.53;16.47;;;-6.60;99.90;;;;;;5021708;28;20438;-74
2022/12/03 02:41:10;;;;;;;24.77;17.23;;;-6.50;99.90;;;;;;5016590;28;20858;-73
2022/12/03 02:43:36;;;;;;;23.53;15.70;;;-6.40;99.90;;;;;;5016392;28;20862;-73
2022/12/03 02:46:03;;;;;;;26.97;17.23;;;-5.30;99.90;;;;;;5021818;28;20439;-73
2022/12/03 02:48:32;;;;;;;24.57;17.03;;;-6.30;99.90;;;;;;5017019;28;20477;-73
2022/12/03 02:51:03;;;;;;;22.27;15.40;;;-6.20;99.90;;;;;;5016225;28;20541;-73
2022/12/03 02:53:33;;;;;;;25.50;18.00;;;-6.20;99.90;;;;;;5016562;28;20455;-73
2022/12/03 02:56:01;;;;;;;25.47;16.73;;;-6.10;99.90;;;;;;5016709;28;20438;-73
2022/12/03 02:58:30;;;;;;;28.37;17.03;;;-6.00;99.90;;;;;;5016427;28;20470;-73
2022/12/03 03:00:57;;;;;;;24.40;16.50;;;-4.90;99.90;;;;;;5025383;28;20446;-73
2022/12/03 03:03:26;;;;;;;23.23;16.30;;;-6.40;99.90;;;;;;5015953;28;20450;-73
2022/12/03 03:05:52;;;;;;;23.43;16.27;;;-6.30;99.90;;;;;;5016325;28;20434;-75
2022/12/03 03:08:18;;;;;;;24.43;15.57;;;-6.30;99.90;;;;;;5048262;28;20513;-73
2022/12/03 03:10:46;;;;;;;22.70;16.07;;;-6.50;99.90;;;;;;5016030;28;20488;-73
2022/12/03 03:13:17;;;;;;;24.63;15.83;;;-6.60;99.90;;;;;;5016428;28;20474;-74
2022/12/03 03:15:43;;;;;;;24.27;16.00;;;-6.50;99.90;;;;;;5020887;28;20514;-75
2022/12/03 03:18:12;;;;;;;24.23;15.83;;;-6.50;99.90;;;;;;5015744;28;20441;-73
2022/12/03 03:20:38;;;;;;;24.53;15.73;;;-6.30;99.90;;;;;;5016177;28;20478;-76
2022/12/03 03:23:10;;;;;;;20.77;15.63;;;-6.00;99.90;;;;;;5016244;28;20442;-75
2022/12/03 03:25:37;;;;;;;26.37;15.70;;;-5.20;99.90;;;;;;5015654;28;20814;-73
2022/12/03 03:28:04;;;;;;;26.07;16.33;;;-5.60;99.90;;;;;;5048003;28;20906;-74
2022/12/03 03:30:30;;;;;;;23.67;18.07;;;-5.40;99.90;;;;;;5015580;28;20870;-75
2022/12/03 03:32:57;;;;;;;20.33;15.73;;;-5.30;99.90;;;;;;5015705;28;20439;-75
2022/12/03 03:35:24;;;;;;;24.73;16.60;;;-5.60;99.90;;;;;;5015421;28;20514;-74
2022/12/03 03:37:52;;;;;;;26.87;18.70;;;-5.90;99.90;;;;;;5015871;28;20434;-75
2022/12/03 03:40:19;;;;;;;24.50;16.30;;;-5.60;99.90;;;;;;5029436;28;20744;-74
2022/12/03 03:42:45;;;;;;;27.07;17.17;;;-5.50;99.90;;;;;;5014621;28;20454;-74
2022/12/03 03:45:11;;;;;;;22.13;16.57;;;-5.90;99.90;;;;;;5016907;28;20431;-75
2022/12/03 03:47:38;;;;;;;23.87;16.47;;;-6.30;99.90;;;;;;5015038;28;20422;-73
2022/12/03 03:50:05;;;;;;;20.53;15.03;;;-6.00;99.90;;;;;;5015703;28;20528;-72
2022/12/03 03:52:31;;;;;;;25.63;16.40;;;-6.50;99.90;;;;;;5023510;28;20977;-74
2022/12/03 03:54:57;;;;;;;24.60;16.43;;;-6.20;99.90;;;;;;5014983;28;20466;-73
2022/12/03 03:57:23;;;;;;;22.17;15.77;;;-5.10;99.90;;;;;;5027184;28;20197;-73
2022/12/03 03:59:48;;;;;;;23.27;16.57;;;-6.70;99.90;;;;;;5029057;28;20188;-73
2022/12/03 04:02:23;;;;;;;25.13;16.83;;;-5.00;99.90;;;;;;5014768;28;20174;-73
2022/12/03 04:04:50;;;;;;;25.83;16.63;;;-6.30;99.90;;;;;;5015327;28;20249;-74
2022/12/03 04:07:16;;;;;;;23.40;16.20;;;-5.60;99.90;;;;;;5015520;28;20510;-72
2022/12/03 04:09:42;;;;;;;22.50;15.83;;;-6.50;99.90;;;;;;5027755;28;20734;-72
2022/12/03 04:14:54;;;;;;;27.00;19.20;;;-7.00;99.90;;;;;;5018080;28;20445;-72
2022/12/03 04:17:20;;;;;;;24.93;16.10;;;-6.40;99.90;;;;;;5017414;28;21133;-73
2022/12/03 04:19:45;;;;;;;22.67;15.50;;;-7.20;99.90;;;;;;5014906;28;20185;-75
2022/12/03 04:28:47;;;;;;;24.13;16.97;;;-6.10;99.90;;;;;;5014933;28;20216;-72
2022/12/03 04:30:26;;;;;;;25.90;17.80;;;-6.60;99.90;;;;;;5014840;28;20438;-73
2022/12/03 04:35:41;;;;;;;24.03;15.70;;;-6.80;99.90;;;;;;5014751;28;20262;-77
2022/12/03 04:38:11;;;;;;;22.50;15.40;;;-7.00;99.90;;;;;;5014986;28;20458;-73
2022/12/03 04:43:22;;;;;;;24.93;15.83;;;-7.10;99.90;;;;;;5014795;28;20465;-75
2022/12/03 04:45:48;;;;;;;23.50;15.93;;;-5.50;99.90;;;;;;5015072;28;20744;-74
2022/12/03 04:48:14;;;;;;;21.33;15.43;;;-6.40;99.90;;;;;;5014694;28;20504;-74
2022/12/03 04:50:39;;;;;;;25.50;17.47;;;-6.20;99.90;;;;;;5014637;28;20185;-74
2022/12/03 04:53:05;;;;;;;23.30;16.57;;;-5.90;99.90;;;;;;5014279;28;20264;-77
2022/12/03 04:55:31;;;;;;;30.60;20.37;;;-5.30;99.90;;;;;;5014325;28;20185;-74
2022/12/03 04:57:56;;;;;;;25.97;17.47;;;-5.40;99.90;;;;;;5014536;28;20196;-72
2022/12/03 05:00:22;;;;;;;23.07;16.10;;;-5.70;99.90;;;;;;5014504;28;20185;-75
2022/12/03 05:02:48;;;;;;;23.77;16.53;;;-5.70;99.90;;;;;;5013951;28;20185;-76
2022/12/03 05:05:14;;;;;;;23.83;16.13;;;-5.90;99.90;;;;;;5014573;28;20177;-74
2022/12/03 05:07:39;;;;;;;25.63;16.83;;;-6.20;99.90;;;;;;5014330;28;20185;-76
2022/12/03 05:10:06;;;;;;;25.33;16.57;;;-6.00;99.90;;;;;;5014594;28;20580;-77
2022/12/03 05:12:32;;;;;;;24.00;16.13;;;-6.20;99.90;;;;;;5014177;28;20216;-77
2022/12/03 05:14:58;;;;;;;22.33;15.70;;;-5.90;99.90;;;;;;5017351;28;20438;-76
2022/12/03 05:17:24;;;;;;;21.80;15.03;;;-6.10;99.90;;;;;;5013931;28;20188;-75
2022/12/03 05:22:34;;;;;;;21.70;15.73;;;-6.00;99.90;;;;;;5013842;28;20205;-78
2022/12/03 05:24:59;;;;;;;22.53;15.60;;;-6.20;99.90;;;;;;5014282;28;20442;-78
2022/12/03 05:27:25;;;;;;;25.53;16.67;;;-5.70;99.90;;;;;;5016360;28;20184;-77
2022/12/03 05:29:51;;;;;;;26.20;16.40;;;-5.80;99.90;;;;;;5016875;28;20514;-76
2022/12/03 05:32:18;;;;;;;25.37;16.50;;;-6.10;99.90;;;;;;5014170;28;20180;-78
2022/12/03 05:34:43;;;;;;;25.47;18.00;;;-6.40;99.90;;;;;;5013961;28;20427;-79
2022/12/03 05:37:09;;;;;;;26.50;17.23;;;-5.20;99.90;;;;;;5013892;28;20728;-76
2022/12/03 05:39:36;;;;;;;21.70;16.20;;;-5.90;99.90;;;;;;5014954;28;20181;-73
2022/12/03 05:44:46;;;;;;;24.20;17.20;;;-6.30;99.90;;;;;;5015930;28;20433;-74
2022/12/03 05:47:11;;;;;;;26.17;17.93;;;-7.50;99.90;;;;;;5027502;28;20434;-74
2022/12/03 05:49:37;;;;;;;23.70;16.23;;;-6.80;99.90;;;;;;5014126;28;20215;-76
2022/12/03 05:52:03;;;;;;;25.10;16.13;;;-6.90;99.90;;;;;;5014313;28;20173;-77
2022/12/03 05:54:28;;;;;;;24.03;16.93;;;-6.90;99.90;;;;;;5013920;28;20228;-76
2022/12/03 05:56:54;;;;;;;26.23;15.97;;;-6.70;99.90;;;;;;5014150;28;20186;-78
2022/12/03 05:59:20;;;;;;;22.27;15.03;;;-7.30;99.90;;;;;;5013780;28;20660;-76
2022/12/03 06:01:46;;;;;;;25.47;17.53;;;-7.10;99.90;;;;;;5013895;28;20211;-78
2022/12/03 06:04:11;;;;;;;27.47;16.73;;;-6.50;99.90;;;;;;5013582;28;20197;-75
2022/12/03 06:06:37;;;;;;;25.73;18.10;;;-6.60;99.90;;;;;;5015519;28;20193;-73
2022/12/03 06:09:03;;;;;;;24.30;16.77;;;-5.90;99.90;;;;;;5017509;28;20213;-75
2022/12/03 06:11:32;;;;;;;22.77;15.40;;;-6.70;99.90;;;;;;5017472;28;20165;-74
2022/12/03 06:13:58;;;;;;;25.67;16.90;;;-6.60;99.90;;;;;;5016589;28;20430;-75
2022/12/03 06:16:24;;;;;;;25.93;17.77;;;-7.60;99.90;;;;;;5019469;28;21114;-78
2022/12/03 06:18:49;;;;;;;23.13;16.13;;;-7.30;99.90;;;;;;5017781;28;20185;-77
2022/12/03 06:21:15;;;;;;;24.07;16.13;;;-6.50;99.90;;;;;;5017363;28;20177;-74
2022/12/03 06:23:43;;;;;;;26.63;16.53;;;-6.90;99.90;;;;;;5029592;28;20189;-76
2022/12/03 06:26:12;;;;;;;25.90;17.50;;;-7.00;99.90;;;;;;5017194;28;20182;-78
2022/12/03 06:28:39;;;;;;;26.60;16.80;;;-6.80;99.90;;;;;;5017045;28;20520;-78
2022/12/03 06:31:05;;;;;;;24.20;16.60;;;-6.00;99.90;;;;;;5016772;28;20453;-77
2022/12/03 06:33:31;;;;;;;25.20;17.73;;;-6.50;99.90;;;;;;5017097;28;20435;-76
2022/12/03 06:35:57;;;;;;;23.77;17.03;;;-7.30;99.90;;;;;;5016966;28;20884;-74
2022/12/03 06:38:23;;;;;;;27.47;18.57;;;-7.30;99.90;;;;;;5016945;28;20244;-74
2022/12/03 06:40:48;;;;;;;22.60;16.07;;;-6.90;99.90;;;;;;5016215;28;20188;-74
2022/12/03 06:43:14;;;;;;;25.27;16.00;;;-7.00;99.90;;;;;;5016873;28;20178;-74
2022/12/03 06:45:40;;;;;;;33.80;20.30;;;-6.70;99.90;;;;;;5052242;28;20212;-75
2022/12/03 06:48:06;;;;;;;26.27;19.23;;;-7.40;99.90;;;;;;5016421;28;20215;-75
2022/12/03 06:50:32;;;;;;;30.80;21.30;;;-6.90;99.90;;;;;;5016966;28;20185;-77
2022/12/03 06:52:58;;;;;;;29.53;17.87;;;-7.00;99.90;;;;;;5016303;28;20431;-77
2022/12/03 06:55:23;;;;;;;31.43;22.13;;;-7.20;99.90;;;;;;5015768;28;20182;-77
2022/12/03 06:57:49;;;;;;;28.57;18.80;;;-6.00;99.90;;;;;;5019001;28;20185;-77
2022/12/03 07:00:15;;;;;;;31.50;17.80;;;-7.10;99.90;;;;;;5016148;28;20185;-75
2022/12/03 07:02:43;;;;;;;25.23;18.90;;;-6.20;99.90;;;;;;5028282;28;20181;-73
2022/12/03 07:05:09;;;;;;;32.67;20.17;;;-6.60;99.90;;;;;;5018698;28;20166;-73
2022/12/03 07:07:35;;;;;;;24.77;16.47;;;-6.40;99.90;;;;;;5016377;28;20457;-76
2022/12/03 07:10:01;;;;;;;25.13;16.43;;;-5.80;99.90;;;;;;5023430;28;20490;-73
2022/12/03 07:12:26;;;;;;;20.97;15.40;;;-6.80;99.90;;;;;;5029698;28;20185;-76
2022/12/03 07:14:52;;;;;;;27.77;18.17;;;-6.80;99.90;;;;;;5023091;28;20227;-75
2022/12/03 07:17:18;;;;;;;33.50;22.73;;;-6.30;99.90;;;;;;5020629;28;20173;-76
2022/12/03 07:19:44;;;;;;;25.40;16.53;;;-6.50;99.90;;;;;;5016205;28;20635;-77
2022/12/03 07:22:10;;;;;;;25.47;17.30;;;-7.40;99.90;;;;;;5017481;28;20431;-74
2022/12/03 07:24:36;;;;;;;30.87;19.33;;;-7.10;99.90;;;;;;5019533;28;20196;-77
2022/12/03 07:27:02;;;;;;;22.60;16.70;;;-7.30;99.90;;;;;;5025572;28;20253;-77
2022/12/03 07:29:28;;;;;;;25.73;17.03;;;-6.70;99.90;;;;;;5030537;28;20477;-72
2022/12/03 07:31:55;;;;;;;26.57;17.53;;;-6.70;99.90;;;;;;5031292;28;20173;-72
2022/12/03 07:34:21;;;;;;;27.07;18.43;;;-6.30;99.90;;;;;;5027187;28;20426;-73
2022/12/03 07:36:46;;;;;;;27.37;17.60;;;-6.20;99.90;;;;;;5029036;28;20436;-78
2022/12/03 07:39:12;;;;;;;27.63;17.33;;;-5.80;99.90;;;;;;5028678;28;20195;-75
2022/12/03 07:41:38;;;;;;;28.73;16.67;;;-6.40;99.90;;;;;;5026106;28;20271;-75
2022/12/03 07:44:04;;;;;;;23.83;16.20;;;-5.80;99.90;;;;;;5030579;28;20521;-77
2022/12/03 07:46:31;;;;;;;27.87;18.03;;;-6.70;99.90;;;;;;5029849;28;20196;-77
2022/12/03 07:48:57;;;;;;;31.20;16.90;;;-6.20;99.90;;;;;;5029214;28;20458;-75
2022/12/03 07:51:22;;;;;;;24.33;18.03;;;-6.20;99.90;;;;;;5029370;28;20649;-73
2022/12/03 07:53:48;;;;;;;28.17;19.23;;;-6.10;99.90;;;;;;5020950;28;20202;-74
2022/12/03 07:56:14;;;;;;;25.57;16.03;;;-6.40;99.90;;;;;;5015587;28;20231;-75
2022/12/03 07:58:40;;;;;;;23.73;16.20;;;-6.30;99.90;;;;;;5016110;28;20189;-76
2022/12/03 08:01:05;;;;;;;26.50;18.67;;;-5.90;99.90;;;;;;5015405;28;20200;-72
2022/12/03 08:03:31;;;;;;;25.37;18.17;;;-5.60;99.90;;;;;;5015893;28;20205;-77
2022/12/03 08:05:57;;;;;;;27.63;18.83;;;-5.40;99.90;;;;;;5015078;28;20609;-77
2022/12/03 08:08:22;;;;;;;27.37;17.80;;;-5.70;99.90;;;;;;5015010;28;20216;-81
2022/12/03 08:10:48;;;;;;;24.80;18.40;;;-6.50;99.90;;;;;;5015383;28;20244;-80
2022/12/03 08:13:15;;;;;;;30.07;19.80;;;-6.50;99.90;;;;;;5016448;28;20186;-74
2022/12/03 08:15:41;;;;;;;29.37;18.80;;;-6.30;99.90;;;;;;5017121;28;20180;-80
2022/12/03 08:18:19;;;;;;;30.33;19.07;;;-6.30;99.90;;;;;;5021442;28;20510;-80
2022/12/03 08:20:47;;;;;;;31.23;18.97;;;-5.90;99.90;;;;;;5015627;28;20174;-82
2022/12/03 08:23:14;;;;;;;30.80;19.13;;;-5.90;99.90;;;;;;5021269;28;20433;-81
2022/12/03 08:25:42;;;;;;;27.97;19.07;;;-6.00;99.90;;;;;;5016097;28;20430;-81
2022/12/03 08:28:12;;;;;;;26.33;17.83;;;-5.80;99.90;;;;;;5019827;28;20423;-74
2022/12/03 08:30:43;;;;;;;24.97;17.63;;;-5.80;99.90;;;;;;5026071;28;20446;-73
2022/12/03 08:33:26;;;;;;;27.17;18.50;;;-5.40;99.90;;;;;;5033960;28;20429;-74
2022/12/03 08:35:51;;;;;;;43.87;27.63;;;-6.20;99.90;;;;;;5028431;28;20426;-72
2022/12/03 08:38:23;;;;;;;31.10;21.63;;;-6.20;99.90;;;;;;5030016;28;20423;-74
2022/12/03 08:40:51;;;;;;;28.47;19.97;;;-6.20;99.90;;;;;;5034107;28;20220;-79
2022/12/03 08:43:21;;;;;;;30.90;20.77;;;-6.30;99.90;;;;;;5028057;28;20433;-88
2022/12/03 08:45:48;;;;;;;29.10;20.93;;;-6.30;99.90;;;;;;5027661;28;20507;-76
2022/12/03 08:48:21;;;;;;;29.90;20.57;;;-4.30;99.90;;;;;;5027224;28;20464;-81
2022/12/03 08:50:47;;;;;;;31.53;19.20;;;-6.10;99.90;;;;;;5030951;28;20421;-78
2022/12/03 08:53:13;;;;;;;32.03;19.90;;;-5.90;99.90;;;;;;5029578;28;20444;-76
2022/12/03 08:55:45;;;;;;;33.00;21.23;;;-6.80;99.90;;;;;;5018878;28;20858;-82
2022/12/03 08:58:23;;;;;;;28.07;17.87;;;-6.60;99.90;;;;;;5027430;28;20180;-75
2022/12/03 09:00:56;;;;;;;29.63;17.87;;;-7.60;99.90;;;;;;5024057;28;20868;-75
2022/12/03 09:03:28;;;;;;;32.77;20.97;;;-6.90;99.90;;;;;;5028167;28;20493;-71
2022/12/03 09:05:53;;;;;;;31.43;20.23;;;-7.30;99.90;;;;;;5025854;28;20715;-76
2022/12/03 09:08:19;;;;;;;29.03;20.00;;;-7.40;99.90;;;;;;5022359;28;20465;-80
2022/12/03 09:10:45;;;;;;;31.70;20.70;;;-7.60;99.90;;;;;;5013941;28;20208;-75
2022/12/03 09:13:11;;;;;;;29.10;21.07;;;-7.30;99.90;;;;;;5019797;28;20181;-78
2022/12/03 09:15:36;;;;;;;31.87;20.50;;;-7.10;99.90;;;;;;5014650;28;20209;-78
2022/12/03 09:18:02;;;;;;;35.40;21.83;;;-6.90;99.90;;;;;;5017657;28;20192;-78
2022/12/03 09:20:28;;;;;;;32.47;22.77;;;-7.20;99.90;;;;;;5013628;28;20227;-76
2022/12/03 09:22:54;;;;;;;28.80;20.27;;;-7.30;99.90;;;;;;5027482;28;20190;-75
2022/12/03 09:25:19;;;;;;;31.90;21.33;;;-8.20;99.90;;;;;;5014743;28;20236;-78
2022/12/03 09:27:45;;;;;;;29.17;18.40;;;-7.70;99.90;;;;;;5012598;28;20201;-77
2022/12/03 09:30:11;;;;;;;31.27;21.07;;;-7.60;99.90;;;;;;5014043;28;20205;-79
2022/12/03 09:32:37;;;;;;;30.20;19.47;;;-7.10;99.90;;;;;;5014656;28;20220;-82
2022/12/03 09:35:03;;;;;;;31.53;18.60;;;-7.20;99.90;;;;;;5013527;28;20487;-80
2022/12/03 09:37:28;;;;;;;29.23;19.40;;;-7.10;99.90;;;;;;5026310;28;20551;-79
2022/12/03 09:39:54;;;;;;;31.77;20.67;;;-7.50;99.90;;;;;;5013776;28;20537;-79
2022/12/03 09:42:20;;;;;;;34.33;21.50;;;-6.90;99.90;;;;;;5016874;28;20189;-77
2022/12/03 09:44:46;;;;;;;32.90;20.40;;;-7.90;99.90;;;;;;5020664;28;20192;-83
2022/12/03 09:47:12;;;;;;;32.83;19.60;;;-5.60;99.90;;;;;;5031528;28;20182;-78
2022/12/03 09:49:38;;;;;;;30.23;21.27;;;-6.80;99.90;;;;;;5029302;28;20612;-76
2022/12/03 09:52:06;;;;;;;36.10;24.17;;;-7.90;99.90;;;;;;5027094;28;20239;-77
2022/12/03 09:54:32;;;;;;;32.27;20.33;;;-7.80;99.90;;;;;;5017339;28;20447;-82
2022/12/03 09:57:02;;;;;;;33.80;20.33;;;-8.00;99.90;;;;;;5017516;28;20910;-74
2022/12/03 09:59:33;;;;;;;29.00;19.30;;;-6.60;99.90;;;;;;5023471;28;20469;-81
2022/12/03 10:02:01;;;;;;;32.50;20.20;;;-7.80;99.90;;;;;;5021306;28;20430;-79
2022/12/03 10:04:28;;;;;;;29.93;20.80;;;-7.60;99.90;;;;;;5017852;28;20442;-79
2022/12/03 10:06:56;;;;;;;30.17;19.20;;;-7.50;99.90;;;;;;5018067;28;20937;-73
2022/12/03 10:09:25;;;;;;;29.07;21.60;;;-7.10;99.90;;;;;;5024470;28;20458;-84
2022/12/03 10:11:51;;;;;;;32.53;19.47;;;-7.60;99.90;;;;;;5031523;28;20451;-79
2022/12/03 10:14:18;;;;;;;30.93;20.60;;;-7.50;99.90;;;;;;5027982;28;20418;-80
2022/12/03 10:16:44;;;;;;;33.10;19.60;;;-7.70;99.90;;;;;;5024256;28;20434;-78
2022/12/03 10:19:38;;;;;;;31.70;20.53;;;-5.60;99.90;;;;;;5026354;28;20427;-82
2022/12/03 10:22:04;;;;;;;30.60;22.53;;;-6.90;99.90;;;;;;5033412;28;20447;-82
2022/12/03 10:24:34;;;;;;;40.17;27.17;;;-7.40;99.90;;;;;;5031004;28;20517;-80
2022/12/03 10:27:28;;;;;;;40.40;26.37;;;-6.90;99.90;;;;;;5029530;28;20487;-79
2022/12/03 10:29:59;;;;;;;38.27;25.30;;;-7.40;99.90;;;;;;5028931;28;20893;-75
2022/12/03 10:32:43;;;;;;;26.77;19.37;;;-7.30;99.90;;;;;;5031995;28;20448;-78
2022/12/03 10:35:20;;;;;;;32.90;20.73;;;-7.20;99.90;;;;;;5028702;28;20432;-73
2022/12/03 10:38:02;;;;;;;32.23;21.20;;;-7.40;99.90;;;;;;5029942;28;21407;-78
2022/12/03 10:40:34;;;;;;;28.87;19.90;;;-7.00;99.90;;;;;;5032468;28;20426;-75
2022/12/03 10:43:18;;;;;;;33.90;20.30;;;-6.50;99.90;;;;;;5030893;28;20601;-73
2022/12/03 10:45:45;;;;;;;29.70;19.27;;;-6.90;99.90;;;;;;5031244;28;20481;-81
2022/12/03 10:48:14;;;;;;;28.03;19.30;;;-6.30;99.90;;;;;;5020646;28;20677;-76
2022/12/03 10:50:49;;;;;;;27.83;19.37;;;-6.30;99.90;;;;;;5019038;28;20418;-72
2022/12/03 10:53:15;;;;;;;31.17;19.80;;;-7.10;99.90;;;;;;5015814;28;20423;-80
2022/12/03 10:55:43;;;;;;;29.73;19.50;;;-7.50;99.90;;;;;;5015573;28;20886;-71
2022/12/03 10:58:16;;;;;;;29.70;18.60;;;-7.00;99.90;;;;;;5027987;28;20435;-71
2022/12/03 11:00:41;;;;;;;30.53;20.03;;;-6.30;99.90;;;;;;5015887;28;20438;-72
2022/12/03 11:03:17;;;;;;;27.90;19.93;;;-6.40;99.90;;;;;;5016079;28;20451;-72
2022/12/03 11:05:43;;;;;;;28.43;18.27;;;-6.40;99.90;;;;;;5016530;28;20186;-75
2022/12/03 11:08:19;;;;;;;25.80;17.57;;;-7.50;99.90;;;;;;5016598;28;20438;-71
2022/12/03 11:10:54;;;;;;;27.87;18.73;;;-7.60;99.90;;;;;;5016596;28;20252;-74
2022/12/03 11:13:26;;;;;;;27.27;18.17;;;-6.50;99.90;;;;;;5016804;28;20692;-73
2022/12/03 11:15:52;;;;;;;29.27;19.93;;;-6.80;99.90;;;;;;5018594;28;20430;-73
2022/12/03 11:18:36;;;;;;;33.43;23.77;;;-7.40;99.90;;;;;;5015772;28;20436;-73
2022/12/03 11:21:11;;;;;;;29.80;18.00;;;-6.90;99.90;;;;;;5016031;28;20459;-74
2022/12/03 11:23:46;;;;;;;38.03;22.77;;;-7.10;99.90;;;;;;5016567;28;20467;-80
2022/12/03 11:26:13;;;;;;;25.70;16.40;;;-6.90;99.90;;;;;;5016019;28;20440;-79
2022/12/03 11:28:52;;;;;;;34.30;22.10;;;-7.10;99.90;;;;;;5021437;28;20616;-77
2022/12/03 11:31:38;;;;;;;28.10;18.97;;;-7.00;99.90;;;;;;5022005;28;20423;-78
2022/12/03 11:34:33;;;;;;;33.80;22.17;;;-7.10;99.90;;;;;;5016316;28;20454;-73
2022/12/03 11:37:11;;;;;;;35.93;22.83;;;-6.90;99.90;;;;;;5022395;28;20466;-76
2022/12/03 11:39:54;;;;;;;34.70;21.20;;;-5.30;99.90;;;;;;5029500;28;20516;-73
2022/12/03 11:42:25;;;;;;;30.90;20.67;;;-6.90;99.90;;;;;;5020945;28;20442;-74
2022/12/03 11:45:03;;;;;;;28.23;18.90;;;-6.70;99.90;;;;;;5015565;28;20460;-74
2022/12/03 11:47:36;;;;;;;28.37;18.63;;;-6.50;99.90;;;;;;5016182;28;20427;-73
2022/12/03 11:50:22;;;;;;;27.63;18.50;;;-6.80;99.90;;;;;;5024788;28;20454;-73
2022/12/03 11:53:07;;;;;;;29.70;18.37;;;-6.30;99.90;;;;;;5017939;28;20493;-78
2022/12/03 11:55:43;;;;;;;26.87;18.80;;;-4.50;99.90;;;;;;5035947;28;20463;-71
2022/12/03 11:58:26;;;;;;;27.23;20.67;;;-6.00;99.90;;;;;;5038021;28;20434;-73
2022/12/03 12:00:55;;;;;;;30.07;18.87;;;-6.10;99.90;;;;;;5038749;28;20421;-72
2022/12/03 12:03:35;;;;;;;31.70;21.60;;;-6.60;99.90;;;;;;5014617;28;20478;-73
2022/12/03 12:06:09;;;;;;;30.17;18.67;;;-6.80;99.90;;;;;;5015421;28;20454;-72
2022/12/03 12:08:38;;;;;;;26.17;18.30;;;-6.80;99.90;;;;;;5015175;28;20461;-74
2022/12/03 12:11:35;;;;;;;26.87;18.23;;;-6.60;99.90;;;;;;5019726;28;20428;-73
2022/12/03 12:14:01;;;;;;;32.77;18.10;;;-6.60;99.90;;;;;;5021025;28;20470;-77
2022/12/03 12:16:51;;;;;;;23.53;15.50;;;-6.80;99.90;;;;;;5019200;28;20518;-74
2022/12/03 12:19:40;;;;;;;21.80;16.30;;;-6.90;99.90;;;;;;5013951;28;20918;-74
2022/12/03 12:22:25;;;;;;;33.63;17.03;;;-7.10;99.90;;;;;;5028717;28;20444;-73
2022/12/03 12:24:51;;;;;;;29.17;17.03;;;-6.80;99.90;;;;;;5027429;28;20956;-72
2022/12/03 12:27:34;;;;;;;22.43;16.33;;;-5.20;99.90;;;;;;5027732;28;20482;-76
2022/12/03 12:30:11;;;;;;;22.37;15.10;;;-6.10;99.90;;;;;;5014501;28;20460;-75
2022/12/03 12:32:46;;;;;;;27.20;17.37;;;-6.30;99.90;;;;;;5015108;28;20514;-73
2022/12/03 12:35:22;;;;;;;25.37;18.20;;;-5.50;99.90;;;;;;5047256;28;20422;-72
2022/12/03 12:38:15;;;;;;;24.20;15.73;;;-6.50;99.90;;;;;;5014809;28;20425;-71
2022/12/03 12:40:44;;;;;;;26.50;16.10;;;-6.90;99.90;;;;;;5014952;28;20474;-72
2022/12/03 12:43:17;;;;;;;20.60;14.63;;;-5.30;99.90;;;;;;5015224;28;20441;-73
2022/12/03 12:45:43;;;;;;;27.30;17.30;;;-7.10;99.90;;;;;;5021548;28;20435;-72
2022/12/03 12:48:08;;;;;;;33.67;18.43;;;-6.90;99.90;;;;;;5014671;28;20435;-73
2022/12/03 12:50:36;;;;;;;22.87;15.67;;;-6.10;99.90;;;;;;5028076;28;20511;-71
2022/12/03 12:53:23;;;;;;;23.67;16.67;;;-6.00;99.90;;;;;;5014415;28;20676;-71
2022/12/03 12:56:00;;;;;;;38.47;24.03;;;-6.00;99.90;;;;;;5014441;28;20460;-73
2022/12/03 12:58:30;;;;;;;24.93;17.23;;;-6.50;99.90;;;;;;5014324;28;20959;-75